Aobamaru — JD3334 — position and weather

sailwx.info

Track history (hours):
 
Tides and Currents Weather Stations Pressure Air Temp Water Temp Dewpoint Dewpoint Depression Visibility Wind Speed Wind Dir Waves Ship Positions

Aobamaru

Last reported at 2018-Jan-22 00:01 UTC. Time now 2018-Jan-22 00:18 UTC.
Position N 35°17' E 139°41'.

Length 38 m; draft 3 m.

Type: Tug. MMSI: 431003385.

Date/timePositionNaut miles runAvg speedWind from/ knotsBaromVisibWave heightAir tempDewpointWater temp
2018-Jan-22 00:01N 35°17' E 139°41'0 0.0
2018-Jan-21 23:29N 35°17' E 139°41'0 0.0
2018-Jan-21 23:01N 35°17' E 139°41'0 0.0
2018-Jan-21 22:30N 35°17' E 139°41'0 0.0
2018-Jan-21 22:00N 35°17' E 139°41'0 0.0
2018-Jan-21 21:31N 35°17' E 139°41'0 0.0
2018-Jan-21 21:00N 35°17' E 139°41'0 0.0
2018-Jan-21 20:29N 35°17' E 139°41'0 0.0
2018-Jan-21 20:00N 35°17' E 139°41'0 0.0
2018-Jan-21 19:30N 35°17' E 139°41'0 0.0
2018-Jan-21 19:00N 35°17' E 139°41'0 0.0
2018-Jan-21 18:31N 35°17' E 139°41'0 0.0
2018-Jan-21 18:00N 35°17' E 139°41'0 0.0
2018-Jan-21 17:30N 35°17' E 139°41'0 0.0
2018-Jan-21 17:00N 35°17' E 139°41'0 0.0
2018-Jan-21 16:30N 35°17' E 139°41'0 0.0
2018-Jan-21 16:00N 35°17' E 139°41'0 0.0
2018-Jan-21 15:30N 35°17' E 139°41'0 0.0
2018-Jan-21 15:00N 35°17' E 139°41'0 0.0
2018-Jan-21 14:30N 35°17' E 139°41'0 0.0
2018-Jan-21 14:00N 35°17' E 139°41'0 0.0
2018-Jan-21 13:00N 35°17' E 139°41'0 0.0
2018-Jan-21 12:29N 35°17' E 139°41'0 0.0
2018-Jan-21 12:01N 35°17' E 139°41'0 0.0
2018-Jan-21 11:30N 35°17' E 139°41'0 0.0
2018-Jan-21 11:00N 35°17' E 139°41'0 0.0
2018-Jan-21 10:31N 35°17' E 139°41'0 0.0
2018-Jan-21 10:00N 35°17' E 139°41'0 0.0
2018-Jan-21 09:30N 35°17' E 139°41'0 0.0
2018-Jan-21 09:00N 35°17' E 139°41'0 0.0
2018-Jan-21 08:31N 35°17' E 139°41'0 0.0
2018-Jan-21 08:00N 35°17' E 139°41'0 0.0
2018-Jan-21 07:30N 35°17' E 139°41'0 0.0
2018-Jan-21 07:00N 35°17' E 139°41'0 0.0
2018-Jan-21 06:30N 35°17' E 139°41'0 0.0
2018-Jan-21 06:00N 35°17' E 139°41'0 0.0
2018-Jan-21 05:30N 35°17' E 139°41'0 0.0
2018-Jan-21 05:01N 35°17' E 139°41'0 0.0
2018-Jan-21 04:31N 35°17' E 139°41'0 0.0
2018-Jan-21 04:00N 35°17' E 139°41'0 0.0
2018-Jan-21 03:31N 35°17' E 139°41'0 0.0
2018-Jan-21 03:00N 35°17' E 139°41'0 0.0
2018-Jan-21 02:31N 35°17' E 139°41'0 0.0
2018-Jan-21 02:00N 35°17' E 139°41'0 0.0
2018-Jan-21 01:30N 35°17' E 139°41'0 0.0
2018-Jan-21 01:01N 35°17' E 139°41'0 0.0
2018-Jan-21 00:31N 35°17' E 139°41'0 0.0
2018-Jan-21 00:01N 35°17' E 139°41'0 0.0
2018-Jan-20 23:30N 35°17' E 139°41'0 0.4
2018-Jan-20 23:00N 35°17' E 139°41'3 6.7
2018-Jan-20 22:30N 35°20' E 139°42'510.7
2018-Jan-20 22:01N 35°25' E 139°46'612.1
2018-Jan-20 21:30N 35°19' E 139°44'612.0
2018-Jan-20 21:00N 35°13' E 139°47'3 6.6
2018-Jan-20 20:30N 35°10' E 139°47'4 8.7
2018-Jan-20 20:00N 35°14' E 139°46'5 9.3
2018-Jan-20 19:30N 35°18' E 139°42'1 2.8
2018-Jan-20 19:00N 35°17' E 139°41'0 0.0
2018-Jan-20 18:30N 35°17' E 139°41'0 0.0
2018-Jan-20 18:00N 35°17' E 139°41'0 0.0
2018-Jan-20 17:30N 35°17' E 139°41'0 0.0
2018-Jan-20 17:00N 35°17' E 139°41'0 0.0
2018-Jan-20 16:30N 35°17' E 139°41'0 0.0
2018-Jan-20 16:00N 35°17' E 139°41'0 0.0
2018-Jan-20 15:30N 35°17' E 139°41'0 0.0
2018-Jan-20 15:00N 35°17' E 139°41'0 0.0
2018-Jan-20 14:30N 35°17' E 139°41'0 0.0
2018-Jan-20 14:00N 35°17' E 139°41'0 0.0
2018-Jan-20 13:30N 35°17' E 139°41'0 0.0
2018-Jan-20 13:00N 35°17' E 139°41'0 0.0
2018-Jan-20 12:30N 35°17' E 139°41'0 0.0
2018-Jan-20 12:00N 35°17' E 139°41'3 5.9
2018-Jan-20 11:30N 35°20' E 139°42'611.7
2018-Jan-20 11:00N 35°25' E 139°46'510.8
2018-Jan-20 10:30N 35°19' E 139°44'611.1
2018-Jan-20 10:00N 35°14' E 139°47'4 9.0
2018-Jan-20 09:30N 35°10' E 139°47'3 5.2
2018-Jan-20 09:00N 35°12' E 139°46'2 4.9
2018-Jan-20 08:30N 35°13' E 139°43'0 0.0
2018-Jan-20 08:00N 35°13' E 139°43'0 0.0
2018-Jan-20 07:30N 35°13' E 139°43'3 6.1
2018-Jan-20 06:58N 35°15' E 139°46'511.1
2018-Jan-20 06:30N 35°19' E 139°43'511.0
2018-Jan-20 06:00N 35°25' E 139°44'713.1
2018-Jan-20 05:30N 35°29' E 139°50'510.9
2018-Jan-20 05:00N 35°29' E 139°57'1 1.2
2018-Jan-20 04:30N 35°29' E 139°58'1 1.7
2018-Jan-20 04:00N 35°29' E 139°57'0 0.2
2018-Jan-20 03:30N 35°28' E 139°56'0 0.0
2018-Jan-20 03:00N 35°28' E 139°56'0 0.0
2018-Jan-20 02:30N 35°28' E 139°56'0 0.0
2018-Jan-20 02:00N 35°28' E 139°56'0 0.0
2018-Jan-20 01:30N 35°28' E 139°56'2 4.9
2018-Jan-20 01:00N 35°27' E 139°54'510.1
2018-Jan-20 00:30N 35°27' E 139°48'2 4.9
2018-Jan-20 00:00N 35°24' E 139°46'611.1
2018-Jan-19 23:30N 35°19' E 139°44'611.4
2018-Jan-19 23:00N 35°14' E 139°47'4 8.1
2018-Jan-19 22:30N 35°10' E 139°47'4 7.1
2018-Jan-19 22:00N 35°13' E 139°46'510.2
2018-Jan-19 21:31N 35°18' E 139°42'1 2.9
2018-Jan-19 21:00N 35°17' E 139°41'0 0.0
2018-Jan-19 20:29N 35°17' E 139°41'0 0.0
2018-Jan-19 20:00N 35°17' E 139°41'0 0.0
2018-Jan-19 19:30N 35°17' E 139°41'0 0.0
2018-Jan-19 19:00N 35°17' E 139°41'0 0.0
2018-Jan-19 18:30N 35°17' E 139°41'0 0.0
2018-Jan-19 18:00N 35°17' E 139°41'0 0.0
2018-Jan-19 17:30N 35°17' E 139°41'0 0.0
2018-Jan-19 17:00N 35°17' E 139°41'0 0.0
2018-Jan-19 16:30N 35°17' E 139°41'0 0.0
2018-Jan-19 16:00N 35°17' E 139°41'0 0.0
2018-Jan-19 15:30N 35°17' E 139°41'0 0.0
2018-Jan-19 15:00N 35°17' E 139°41'0 0.0
2018-Jan-19 14:30N 35°17' E 139°41'0 0.0
2018-Jan-19 14:00N 35°17' E 139°41'0 0.0
2018-Jan-19 13:30N 35°17' E 139°41'0 0.0
2018-Jan-19 13:00N 35°17' E 139°41'0 0.0
2018-Jan-19 12:30N 35°17' E 139°41'0 0.0
2018-Jan-19 12:00N 35°17' E 139°41'0 0.0
2018-Jan-19 11:30N 35°17' E 139°41'0 0.0
2018-Jan-19 11:00N 35°17' E 139°41'0 0.0
2018-Jan-19 10:30N 35°17' E 139°41'0 0.0
2018-Jan-19 10:00N 35°17' E 139°41'0 0.0
2018-Jan-19 09:30N 35°17' E 139°41'0 0.0
2018-Jan-19 09:00N 35°17' E 139°41'0 0.0
2018-Jan-19 08:30N 35°17' E 139°41'0 0.0
2018-Jan-19 08:00N 35°17' E 139°41'0 0.0
2018-Jan-19 07:30N 35°17' E 139°41'0 0.0
2018-Jan-19 07:00N 35°17' E 139°41'2 3.7
2018-Jan-19 06:30N 35°19' E 139°40'1 1.3
2018-Jan-19 06:00N 35°19' E 139°40'0 0.0
2018-Jan-19 05:30N 35°19' E 139°40'0 0.0
2018-Jan-19 05:01N 35°19' E 139°40'0 0.6
2018-Jan-19 04:30N 35°19' E 139°39'0 0.0
2018-Jan-19 04:00N 35°19' E 139°39'0 0.0
2018-Jan-19 03:30N 35°19' E 139°39'4 7.0
2018-Jan-19 03:00N 35°17' E 139°43'611.5
2018-Jan-19 02:30N 35°12' E 139°46'510.9
2018-Jan-19 02:00N 35°17' E 139°45'612.2
2018-Jan-19 01:30N 35°23' E 139°41'2 3.0
2018-Jan-19 01:00N 35°24' E 139°40'0 0.1
2018-Jan-19 00:30N 35°24' E 139°40'0 0.0
2018-Jan-19 00:00N 35°24' E 139°40'3 5.8
2018-Jan-18 23:30N 35°23' E 139°43'2 4.7
2018-Jan-18 23:00N 35°23' E 139°46'4 7.9
2018-Jan-18 22:30N 35°19' E 139°44'611.7
2018-Jan-18 22:00N 35°13' E 139°47'3 6.7
2018-Jan-18 21:30N 35°10' E 139°47'4 7.3
2018-Jan-18 21:00N 35°14' E 139°46'5 9.8
2018-Jan-18 20:30N 35°18' E 139°42'2 3.0
2018-Jan-18 20:00N 35°17' E 139°41'0 0.0
2018-Jan-18 19:30N 35°17' E 139°41'0 0.0
2018-Jan-18 19:00N 35°17' E 139°41'0 0.0
2018-Jan-18 18:31N 35°17' E 139°41'0 0.0
2018-Jan-18 18:00N 35°17' E 139°41'0 0.0
2018-Jan-18 17:31N 35°17' E 139°41'0 0.0
2018-Jan-18 17:00N 35°17' E 139°41'0 0.0
2018-Jan-18 16:30N 35°17' E 139°41'0 0.0
2018-Jan-18 16:00N 35°17' E 139°41'0 0.0
2018-Jan-18 15:30N 35°17' E 139°41'0 0.0
2018-Jan-18 15:00N 35°17' E 139°41'0 0.0
2018-Jan-18 14:31N 35°17' E 139°41'0 0.0
2018-Jan-18 14:00N 35°17' E 139°41'0 0.0
2018-Jan-18 13:31N 35°17' E 139°41'0 0.0
2018-Jan-18 13:00N 35°17' E 139°41'0 0.0
2018-Jan-18 12:30N 35°17' E 139°41'0 0.0
2018-Jan-18 12:00N 35°17' E 139°41'0 0.0
2018-Jan-18 11:30N 35°17' E 139°41'0 0.0
2018-Jan-18 11:00N 35°17' E 139°41'0 0.0
2018-Jan-18 10:30N 35°17' E 139°41'0 0.0
2018-Jan-18 10:00N 35°17' E 139°41'0 0.0
2018-Jan-18 09:30N 35°17' E 139°41'0 0.0
2018-Jan-18 09:01N 35°17' E 139°41'3 5.4
2018-Jan-18 08:30N 35°20' E 139°42'5 9.3
2018-Jan-18 08:00N 35°24' E 139°45'3 5.1
2018-Jan-18 07:30N 35°21' E 139°45'611.3
2018-Jan-18 07:00N 35°16' E 139°47'612.0
2018-Jan-18 06:30N 35°10' E 139°47'3 6.9
2018-Jan-18 06:00N 35°13' E 139°45'1 3.0
2018-Jan-18 05:30N 35°13' E 139°43'3 5.4
2018-Jan-18 05:00N 35°13' E 139°46'511.0
2018-Jan-18 04:30N 35°18' E 139°44'510.7
2018-Jan-18 04:00N 35°24' E 139°43'4 8.7
2018-Jan-18 03:30N 35°28' E 139°44'0 0.2
2018-Jan-18 03:00N 35°28' E 139°44'0 0.0
2018-Jan-18 02:30N 35°28' E 139°44'3 5.5
2018-Jan-18 02:00N 35°27' E 139°48'5 9.5
2018-Jan-18 01:30N 35°30' E 139°52'1 2.3
2018-Jan-18 01:00N 35°29' E 139°52'1211.7
2018-Jan-18 00:00N 35°19' E 139°44'111.4
2018-Jan-17 23:58N 35°18' E 139°44'  
2018-Jan-12 15:00N 35°17' E 139°41'0 0.0
2018-Jan-12 14:30N 35°17' E 139°41'0 0.0
2018-Jan-12 14:00N 35°17' E 139°41'0 0.0
2018-Jan-12 13:30N 35°17' E 139°41'0 0.0
2018-Jan-12 13:00N 35°17' E 139°41'0 0.0
2018-Jan-12 12:30N 35°17' E 139°41'0 0.0
2018-Jan-12 12:00N 35°17' E 139°41'0 0.0
2018-Jan-12 11:30N 35°17' E 139°41'0 0.0
2018-Jan-12 11:00N 35°17' E 139°41'0 0.0
2018-Jan-12 10:30N 35°17' E 139°41'0 0.0
2018-Jan-12 10:00N 35°17' E 139°41'0 0.0
2018-Jan-12 09:30N 35°17' E 139°41'0 0.0
2018-Jan-12 09:00N 35°17' E 139°41'0 0.0
2018-Jan-12 08:30N 35°17' E 139°41'0 0.0
2018-Jan-12 07:58N 35°17' E 139°41'0 0.0
2018-Jan-12 07:30N 35°17' E 139°41'0 0.0
2018-Jan-12 07:00N 35°17' E 139°41'0 0.0
2018-Jan-12 06:30N 35°17' E 139°41'0 0.0
2018-Jan-12 06:00N 35°17' E 139°41'0 0.0
2018-Jan-12 05:29N 35°17' E 139°41'0 0.0
2018-Jan-12 05:00N 35°17' E 139°41'0 0.0
2018-Jan-12 04:30N 35°17' E 139°41'0 0.0
2018-Jan-12 04:00N 35°17' E 139°41'0 0.0
2018-Jan-12 03:30N 35°17' E 139°41'0 0.0
2018-Jan-12 03:00N 35°17' E 139°41'3 5.9
2018-Jan-12 02:30N 35°17' E 139°44'4 8.5
2018-Jan-12 02:00N 35°13' E 139°46'611.8
2018-Jan-12 01:30N 35°18' E 139°44'612.0
2018-Jan-12 01:00N 35°24' E 139°43'4 8.3
2018-Jan-12 00:30N 35°24' E 139°48'2 5.0
2018-Jan-12 00:01N 35°21' E 139°49'  
Track history (hours):
 
Tides and Currents Weather Stations Pressure Air Temp Water Temp Dewpoint Dewpoint Depression Visibility Wind Speed Wind Dir Waves Ship Positions

Aobamaru

Last reported at 2018-Jan-22 00:01 UTC. Time now 2018-Jan-22 00:18 UTC.
Position N 35°17' E 139°41'.

Length 38 m; draft 3 m.

Type: Tug. MMSI: 431003385.

Date/timePositionNaut miles runAvg speedWind from/ knotsBaromVisibWave heightAir tempDewpointWater temp
2018-Jan-22 00:01N 35°17' E 139°41'0 0.0
2018-Jan-21 23:29N 35°17' E 139°41'0 0.0
2018-Jan-21 23:01N 35°17' E 139°41'0 0.0
2018-Jan-21 22:30N 35°17' E 139°41'0 0.0
2018-Jan-21 22:00N 35°17' E 139°41'0 0.0
2018-Jan-21 21:31N 35°17' E 139°41'0 0.0
2018-Jan-21 21:00N 35°17' E 139°41'0 0.0
2018-Jan-21 20:29N 35°17' E 139°41'0 0.0
2018-Jan-21 20:00N 35°17' E 139°41'0 0.0
2018-Jan-21 19:30N 35°17' E 139°41'0 0.0
2018-Jan-21 19:00N 35°17' E 139°41'0 0.0
2018-Jan-21 18:31N 35°17' E 139°41'0 0.0
2018-Jan-21 18:00N 35°17' E 139°41'0 0.0
2018-Jan-21 17:30N 35°17' E 139°41'0 0.0
2018-Jan-21 17:00N 35°17' E 139°41'0 0.0
2018-Jan-21 16:30N 35°17' E 139°41'0 0.0
2018-Jan-21 16:00N 35°17' E 139°41'0 0.0
2018-Jan-21 15:30N 35°17' E 139°41'0 0.0
2018-Jan-21 15:00N 35°17' E 139°41'0 0.0
2018-Jan-21 14:30N 35°17' E 139°41'0 0.0
2018-Jan-21 14:00N 35°17' E 139°41'0 0.0
2018-Jan-21 13:00N 35°17' E 139°41'0 0.0
2018-Jan-21 12:29N 35°17' E 139°41'0 0.0
2018-Jan-21 12:01N 35°17' E 139°41'0 0.0
2018-Jan-21 11:30N 35°17' E 139°41'0 0.0
2018-Jan-21 11:00N 35°17' E 139°41'0 0.0
2018-Jan-21 10:31N 35°17' E 139°41'0 0.0
2018-Jan-21 10:00N 35°17' E 139°41'0 0.0
2018-Jan-21 09:30N 35°17' E 139°41'0 0.0
2018-Jan-21 09:00N 35°17' E 139°41'0 0.0
2018-Jan-21 08:31N 35°17' E 139°41'0 0.0
2018-Jan-21 08:00N 35°17' E 139°41'0 0.0
2018-Jan-21 07:30N 35°17' E 139°41'0 0.0
2018-Jan-21 07:00N 35°17' E 139°41'0 0.0
2018-Jan-21 06:30N 35°17' E 139°41'0 0.0
2018-Jan-21 06:00N 35°17' E 139°41'0 0.0
2018-Jan-21 05:30N 35°17' E 139°41'0 0.0
2018-Jan-21 05:01N 35°17' E 139°41'0 0.0
2018-Jan-21 04:31N 35°17' E 139°41'0 0.0
2018-Jan-21 04:00N 35°17' E 139°41'0 0.0
2018-Jan-21 03:31N 35°17' E 139°41'0 0.0
2018-Jan-21 03:00N 35°17' E 139°41'0 0.0
2018-Jan-21 02:31N 35°17' E 139°41'0 0.0
2018-Jan-21 02:00N 35°17' E 139°41'0 0.0
2018-Jan-21 01:30N 35°17' E 139°41'0 0.0
2018-Jan-21 01:01N 35°17' E 139°41'0 0.0
2018-Jan-21 00:31N 35°17' E 139°41'0 0.0
2018-Jan-21 00:01N 35°17' E 139°41'0 0.0
2018-Jan-20 23:30N 35°17' E 139°41'0 0.4
2018-Jan-20 23:00N 35°17' E 139°41'3 6.7
2018-Jan-20 22:30N 35°20' E 139°42'510.7
2018-Jan-20 22:01N 35°25' E 139°46'612.1
2018-Jan-20 21:30N 35°19' E 139°44'612.0
2018-Jan-20 21:00N 35°13' E 139°47'3 6.6
2018-Jan-20 20:30N 35°10' E 139°47'4 8.7
2018-Jan-20 20:00N 35°14' E 139°46'5 9.3
2018-Jan-20 19:30N 35°18' E 139°42'1 2.8
2018-Jan-20 19:00N 35°17' E 139°41'0 0.0
2018-Jan-20 18:30N 35°17' E 139°41'0 0.0
2018-Jan-20 18:00N 35°17' E 139°41'0 0.0
2018-Jan-20 17:30N 35°17' E 139°41'0 0.0
2018-Jan-20 17:00N 35°17' E 139°41'0 0.0
2018-Jan-20 16:30N 35°17' E 139°41'0 0.0
2018-Jan-20 16:00N 35°17' E 139°41'0 0.0
2018-Jan-20 15:30N 35°17' E 139°41'0 0.0
2018-Jan-20 15:00N 35°17' E 139°41'0 0.0
2018-Jan-20 14:30N 35°17' E 139°41'0 0.0
2018-Jan-20 14:00N 35°17' E 139°41'0 0.0
2018-Jan-20 13:30N 35°17' E 139°41'0 0.0
2018-Jan-20 13:00N 35°17' E 139°41'0 0.0
2018-Jan-20 12:30N 35°17' E 139°41'0 0.0
2018-Jan-20 12:00N 35°17' E 139°41'3 5.9
2018-Jan-20 11:30N 35°20' E 139°42'611.7
2018-Jan-20 11:00N 35°25' E 139°46'510.8
2018-Jan-20 10:30N 35°19' E 139°44'611.1
2018-Jan-20 10:00N 35°14' E 139°47'4 9.0
2018-Jan-20 09:30N 35°10' E 139°47'3 5.2
2018-Jan-20 09:00N 35°12' E 139°46'2 4.9
2018-Jan-20 08:30N 35°13' E 139°43'0 0.0
2018-Jan-20 08:00N 35°13' E 139°43'0 0.0
2018-Jan-20 07:30N 35°13' E 139°43'3 6.1
2018-Jan-20 06:58N 35°15' E 139°46'511.1
2018-Jan-20 06:30N 35°19' E 139°43'511.0
2018-Jan-20 06:00N 35°25' E 139°44'713.1
2018-Jan-20 05:30N 35°29' E 139°50'510.9
2018-Jan-20 05:00N 35°29' E 139°57'1 1.2
2018-Jan-20 04:30N 35°29' E 139°58'1 1.7
2018-Jan-20 04:00N 35°29' E 139°57'0 0.2
2018-Jan-20 03:30N 35°28' E 139°56'0 0.0
2018-Jan-20 03:00N 35°28' E 139°56'0 0.0
2018-Jan-20 02:30N 35°28' E 139°56'0 0.0
2018-Jan-20 02:00N 35°28' E 139°56'0 0.0
2018-Jan-20 01:30N 35°28' E 139°56'2 4.9
2018-Jan-20 01:00N 35°27' E 139°54'510.1
2018-Jan-20 00:30N 35°27' E 139°48'2 4.9
2018-Jan-20 00:00N 35°24' E 139°46'611.1
2018-Jan-19 23:30N 35°19' E 139°44'611.4
2018-Jan-19 23:00N 35°14' E 139°47'4 8.1
2018-Jan-19 22:30N 35°10' E 139°47'4 7.1
2018-Jan-19 22:00N 35°13' E 139°46'510.2
2018-Jan-19 21:31N 35°18' E 139°42'1 2.9
2018-Jan-19 21:00N 35°17' E 139°41'0 0.0
2018-Jan-19 20:29N 35°17' E 139°41'0 0.0
2018-Jan-19 20:00N 35°17' E 139°41'0 0.0
2018-Jan-19 19:30N 35°17' E 139°41'0 0.0
2018-Jan-19 19:00N 35°17' E 139°41'0 0.0
2018-Jan-19 18:30N 35°17' E 139°41'0 0.0
2018-Jan-19 18:00N 35°17' E 139°41'0 0.0
2018-Jan-19 17:30N 35°17' E 139°41'0 0.0
2018-Jan-19 17:00N 35°17' E 139°41'0 0.0
2018-Jan-19 16:30N 35°17' E 139°41'0 0.0
2018-Jan-19 16:00N 35°17' E 139°41'0 0.0
2018-Jan-19 15:30N 35°17' E 139°41'0 0.0
2018-Jan-19 15:00N 35°17' E 139°41'0 0.0
2018-Jan-19 14:30N 35°17' E 139°41'0 0.0
2018-Jan-19 14:00N 35°17' E 139°41'0 0.0
2018-Jan-19 13:30N 35°17' E 139°41'0 0.0
2018-Jan-19 13:00N 35°17' E 139°41'0 0.0
2018-Jan-19 12:30N 35°17' E 139°41'0 0.0
2018-Jan-19 12:00N 35°17' E 139°41'0 0.0
2018-Jan-19 11:30N 35°17' E 139°41'0 0.0
2018-Jan-19 11:00N 35°17' E 139°41'0 0.0
2018-Jan-19 10:30N 35°17' E 139°41'0 0.0
2018-Jan-19 10:00N 35°17' E 139°41'0 0.0
2018-Jan-19 09:30N 35°17' E 139°41'0 0.0
2018-Jan-19 09:00N 35°17' E 139°41'0 0.0
2018-Jan-19 08:30N 35°17' E 139°41'0 0.0
2018-Jan-19 08:00N 35°17' E 139°41'0 0.0
2018-Jan-19 07:30N 35°17' E 139°41'0 0.0
2018-Jan-19 07:00N 35°17' E 139°41'2 3.7
2018-Jan-19 06:30N 35°19' E 139°40'1 1.3
2018-Jan-19 06:00N 35°19' E 139°40'0 0.0
2018-Jan-19 05:30N 35°19' E 139°40'0 0.0
2018-Jan-19 05:01N 35°19' E 139°40'0 0.6
2018-Jan-19 04:30N 35°19' E 139°39'0 0.0
2018-Jan-19 04:00N 35°19' E 139°39'0 0.0
2018-Jan-19 03:30N 35°19' E 139°39'4 7.0
2018-Jan-19 03:00N 35°17' E 139°43'611.5
2018-Jan-19 02:30N 35°12' E 139°46'510.9
2018-Jan-19 02:00N 35°17' E 139°45'612.2
2018-Jan-19 01:30N 35°23' E 139°41'2 3.0
2018-Jan-19 01:00N 35°24' E 139°40'0 0.1
2018-Jan-19 00:30N 35°24' E 139°40'0 0.0
2018-Jan-19 00:00N 35°24' E 139°40'3 5.8
2018-Jan-18 23:30N 35°23' E 139°43'2 4.7
2018-Jan-18 23:00N 35°23' E 139°46'4 7.9
2018-Jan-18 22:30N 35°19' E 139°44'611.7
2018-Jan-18 22:00N 35°13' E 139°47'3 6.7
2018-Jan-18 21:30N 35°10' E 139°47'4 7.3
2018-Jan-18 21:00N 35°14' E 139°46'5 9.8
2018-Jan-18 20:30N 35°18' E 139°42'2 3.0
2018-Jan-18 20:00N 35°17' E 139°41'0 0.0
2018-Jan-18 19:30N 35°17' E 139°41'0 0.0
2018-Jan-18 19:00N 35°17' E 139°41'0 0.0
2018-Jan-18 18:31N 35°17' E 139°41'0 0.0
2018-Jan-18 18:00N 35°17' E 139°41'0 0.0
2018-Jan-18 17:31N 35°17' E 139°41'0 0.0
2018-Jan-18 17:00N 35°17' E 139°41'0 0.0
2018-Jan-18 16:30N 35°17' E 139°41'0 0.0
2018-Jan-18 16:00N 35°17' E 139°41'0 0.0
2018-Jan-18 15:30N 35°17' E 139°41'0 0.0
2018-Jan-18 15:00N 35°17' E 139°41'0 0.0
2018-Jan-18 14:31N 35°17' E 139°41'0 0.0
2018-Jan-18 14:00N 35°17' E 139°41'0 0.0
2018-Jan-18 13:31N 35°17' E 139°41'0 0.0
2018-Jan-18 13:00N 35°17' E 139°41'0 0.0
2018-Jan-18 12:30N 35°17' E 139°41'0 0.0
2018-Jan-18 12:00N 35°17' E 139°41'0 0.0
2018-Jan-18 11:30N 35°17' E 139°41'0 0.0
2018-Jan-18 11:00N 35°17' E 139°41'0 0.0
2018-Jan-18 10:30N 35°17' E 139°41'0 0.0
2018-Jan-18 10:00N 35°17' E 139°41'0 0.0
2018-Jan-18 09:30N 35°17' E 139°41'0 0.0
2018-Jan-18 09:01N 35°17' E 139°41'3 5.4
2018-Jan-18 08:30N 35°20' E 139°42'5 9.3
2018-Jan-18 08:00N 35°24' E 139°45'3 5.1
2018-Jan-18 07:30N 35°21' E 139°45'611.3
2018-Jan-18 07:00N 35°16' E 139°47'612.0
2018-Jan-18 06:30N 35°10' E 139°47'3 6.9
2018-Jan-18 06:00N 35°13' E 139°45'1 3.0
2018-Jan-18 05:30N 35°13' E 139°43'3 5.4
2018-Jan-18 05:00N 35°13' E 139°46'511.0
2018-Jan-18 04:30N 35°18' E 139°44'510.7
2018-Jan-18 04:00N 35°24' E 139°43'4 8.7
2018-Jan-18 03:30N 35°28' E 139°44'0 0.2
2018-Jan-18 03:00N 35°28' E 139°44'0 0.0
2018-Jan-18 02:30N 35°28' E 139°44'3 5.5
2018-Jan-18 02:00N 35°27' E 139°48'5 9.5
2018-Jan-18 01:30N 35°30' E 139°52'1 2.3
2018-Jan-18 01:00N 35°29' E 139°52'1211.7
2018-Jan-18 00:00N 35°19' E 139°44'111.4
2018-Jan-17 23:58N 35°18' E 139°44'  
2018-Jan-12 15:00N 35°17' E 139°41'0 0.0
2018-Jan-12 14:30N 35°17' E 139°41'0 0.0
2018-Jan-12 14:00N 35°17' E 139°41'0 0.0
2018-Jan-12 13:30N 35°17' E 139°41'0 0.0
2018-Jan-12 13:00N 35°17' E 139°41'0 0.0
2018-Jan-12 12:30N 35°17' E 139°41'0 0.0
2018-Jan-12 12:00N 35°17' E 139°41'0 0.0
2018-Jan-12 11:30N 35°17' E 139°41'0 0.0
2018-Jan-12 11:00N 35°17' E 139°41'0 0.0
2018-Jan-12 10:30N 35°17' E 139°41'0 0.0
2018-Jan-12 10:00N 35°17' E 139°41'0 0.0
2018-Jan-12 09:30N 35°17' E 139°41'0 0.0
2018-Jan-12 09:00N 35°17' E 139°41'0 0.0
2018-Jan-12 08:30N 35°17' E 139°41'0 0.0
2018-Jan-12 07:58N 35°17' E 139°41'0 0.0
2018-Jan-12 07:30N 35°17' E 139°41'0 0.0
2018-Jan-12 07:00N 35°17' E 139°41'0 0.0
2018-Jan-12 06:30N 35°17' E 139°41'0 0.0
2018-Jan-12 06:00N 35°17' E 139°41'0 0.0
2018-Jan-12 05:29N 35°17' E 139°41'0 0.0
2018-Jan-12 05:00N 35°17' E 139°41'0 0.0
2018-Jan-12 04:30N 35°17' E 139°41'0 0.0
2018-Jan-12 04:00N 35°17' E 139°41'0 0.0
2018-Jan-12 03:30N 35°17' E 139°41'0 0.0
2018-Jan-12 03:00N 35°17' E 139°41'3 5.9
2018-Jan-12 02:30N 35°17' E 139°44'4 8.5
2018-Jan-12 02:00N 35°13' E 139°46'611.8
2018-Jan-12 01:30N 35°18' E 139°44'612.0
2018-Jan-12 01:00N 35°24' E 139°43'4 8.3
2018-Jan-12 00:30N 35°24' E 139°48'2 5.0
2018-Jan-12 00:01N 35°21' E 139°49'  

Dump ship's entire track history